Aviation Digital Data Service (ADDS)

Output produced by METARs form (0646 UTC 25 July 2017)
found at http://aviationweather.gov/adds/metars/
 
KJST 250558Z 2506/2606 31008KT P6SM BKN035 
     FM250730 30007KT P6SM OVC025 
     FM250900 30007KT P6SM OVC015 
     FM251030 31007KT P6SM OVC008 
     FM251400 32007KT P6SM OVC015 
     FM251600 32009KT P6SM OVC025 
     FM251800 33009KT P6SM SCT035